BENGL51 KNIP-KNBC
Flight info
| Callsign | BENGL51 |
|---|---|
| Flight time | N/A |
| Altitude | 28000 |
| Route | NIP SAV NBC |
| Aircraft | VF35/M-SDFIRY/LB1 |
Departure
| Time | 2026-04-23 21:54 |
|---|---|
| Airport | Jacksonville Naval Air Station (Towers Field) (KNIP) |
Arrival
| Time | N/A |
|---|---|
| Airport | Beaufort MCAS - Merritt Field (KNBC) |
| Time | Latitude | Longitude | Altitude | Speed | Heading |
|---|---|---|---|---|---|
| 2026-04-23 21:47 | 30.22992 | -81.67594 | 28 ft | 0 kts | 179° |
| 2026-04-23 21:49 | 30.22961 | -81.67598 | 28 ft | 12 kts | 208° |
| 2026-04-23 21:49 | 30.22953 | -81.67691 | 28 ft | 14 kts | 269° |
| 2026-04-23 21:49 | 30.22958 | -81.67798 | 27 ft | 13 kts | 289° |
| 2026-04-23 21:49 | 30.22965 | -81.67896 | 27 ft | 12 kts | 279° |
| 2026-04-23 21:50 | 30.23027 | -81.67922 | 27 ft | 10 kts | 351° |
| 2026-04-23 21:50 | 30.23045 | -81.67980 | 26 ft | 8 kts | 268° |
| 2026-04-23 21:50 | 30.23037 | -81.68257 | 26 ft | 59 kts | 268° |
| 2026-04-23 21:50 | 30.23027 | -81.68663 | 27 ft | 44 kts | 268° |
| 2026-04-23 21:51 | 30.23025 | -81.68977 | 27 ft | 37 kts | 271° |
| 2026-04-23 21:51 | 30.23025 | -81.69214 | 27 ft | 16 kts | 272° |
| 2026-04-23 21:51 | 30.23071 | -81.69258 | 27 ft | 0 kts | 359° |
| 2026-04-23 21:53 | 30.23075 | -81.69258 | 27 ft | 4 kts | 359° |
| 2026-04-23 21:53 | 30.23156 | -81.69226 | 28 ft | 17 kts | 77° |
| 2026-04-23 21:54 | 30.23159 | -81.68994 | 26 ft | 70 kts | 90° |
| 2026-04-23 21:54 | 30.23163 | -81.68040 | 50 ft | 151 kts | 91° |
| 2026-04-23 21:54 | 30.23160 | -81.66715 | 677 ft | 176 kts | 93° |
| 2026-04-23 21:54 | 30.23124 | -81.65119 | 1480 ft | 224 kts | 93° |
| 2026-04-23 21:55 | 30.23419 | -81.63114 | 2244 ft | 287 kts | 65° |
| 2026-04-23 21:55 | 30.24829 | -81.61186 | 3056 ft | 348 kts | 38° |
| 2026-04-23 21:55 | 30.27200 | -81.59913 | 3851 ft | 408 kts | 14° |
| 2026-04-23 21:55 | 30.30135 | -81.59262 | 4645 ft | 422 kts | 8° |
| 2026-04-23 21:56 | 30.32835 | -81.58713 | 5389 ft | 388 kts | 10° |
| 2026-04-23 21:56 | 30.35496 | -81.58131 | 6152 ft | 390 kts | 10° |
| 2026-04-23 21:56 | 30.38181 | -81.57575 | 6896 ft | 395 kts | 9° |
| 2026-04-23 21:56 | 30.40890 | -81.57015 | 7623 ft | 396 kts | 9° |
| 2026-04-23 21:57 | 30.43585 | -81.56441 | 8368 ft | 400 kts | 9° |
| 2026-04-23 21:57 | 30.46334 | -81.55866 | 9148 ft | 405 kts | 9° |
| 2026-04-23 21:57 | 30.49118 | -81.55284 | 9937 ft | 408 kts | 8° |
| 2026-04-23 21:57 | 30.51927 | -81.54694 | 10663 ft | 412 kts | 9° |
| 2026-04-23 21:58 | 30.54751 | -81.54103 | 11394 ft | 414 kts | 9° |
| 2026-04-23 21:58 | 30.57596 | -81.53502 | 12139 ft | 418 kts | 9° |
| 2026-04-23 21:58 | 30.60467 | -81.52899 | 12903 ft | 422 kts | 10° |
| 2026-04-23 21:58 | 30.63371 | -81.52287 | 13684 ft | 425 kts | 10° |
| 2026-04-23 21:59 | 30.66294 | -81.51670 | 14405 ft | 430 kts | 10° |
| 2026-04-23 21:59 | 30.69214 | -81.51054 | 15103 ft | 435 kts | 10° |
| 2026-04-23 21:59 | 30.72211 | -81.50423 | 15827 ft | 440 kts | 9° |
| 2026-04-23 22:00 | 30.78310 | -81.49135 | 17339 ft | 452 kts | 9° |
| 2026-04-23 22:00 | 30.81416 | -81.48479 | 18124 ft | 456 kts | 9° |
| 2026-04-23 22:00 | 30.84560 | -81.47815 | 18843 ft | 463 kts | 9° |
| 2026-04-23 22:00 | 30.87734 | -81.47144 | 19541 ft | 465 kts | 9° |
| 2026-04-23 22:01 | 30.90944 | -81.46463 | 20254 ft | 471 kts | 10° |
| 2026-04-23 22:01 | 30.94136 | -81.45786 | 20968 ft | 474 kts | 10° |
| 2026-04-23 22:01 | 30.97405 | -81.45094 | 21710 ft | 481 kts | 10° |
| 2026-04-23 22:01 | 31.00713 | -81.44392 | 22477 ft | 485 kts | 10° |
| 2026-04-23 22:02 | 31.04048 | -81.43683 | 23263 ft | 490 kts | 10° |
| 2026-04-23 22:02 | 31.07429 | -81.42965 | 23999 ft | 496 kts | 10° |
| 2026-04-23 22:02 | 31.10838 | -81.42239 | 24672 ft | 500 kts | 10° |
| 2026-04-23 22:02 | 31.14283 | -81.41506 | 25366 ft | 506 kts | 10° |
| 2026-04-23 22:03 | 31.17767 | -81.40765 | 26078 ft | 512 kts | 10° |
| 2026-04-23 22:03 | 31.21302 | -81.40011 | 26575 ft | 520 kts | 10° |
| 2026-04-23 22:03 | 31.24811 | -81.39262 | 26818 ft | 519 kts | 10° |
| 2026-04-23 22:03 | 31.28369 | -81.38503 | 26918 ft | 520 kts | 9° |
| 2026-04-23 22:04 | 31.31931 | -81.37743 | 26963 ft | 520 kts | 9° |
| 2026-04-23 22:04 | 31.35485 | -81.36982 | 26983 ft | 520 kts | 10° |
| 2026-04-23 22:04 | 31.39037 | -81.36222 | 26993 ft | 520 kts | 10° |
| 2026-04-23 22:04 | 31.42606 | -81.35458 | 26994 ft | 520 kts | 10° |
| 2026-04-23 22:05 | 31.46166 | -81.34696 | 26992 ft | 520 kts | 10° |
| 2026-04-23 22:05 | 31.49724 | -81.33933 | 26992 ft | 520 kts | 10° |
| 2026-04-23 22:05 | 31.53282 | -81.33168 | 26992 ft | 520 kts | 9° |
| 2026-04-23 22:05 | 31.56795 | -81.32415 | 26987 ft | 520 kts | 9° |
| 2026-04-23 22:06 | 31.60351 | -81.31626 | 26984 ft | 520 kts | 14° |
| 2026-04-23 22:06 | 31.63676 | -81.29991 | 27018 ft | 522 kts | 32° |
| 2026-04-23 22:06 | 31.66446 | -81.27238 | 27038 ft | 524 kts | 47° |
| 2026-04-23 22:06 | 31.68826 | -81.23997 | 27009 ft | 524 kts | 50° |
| 2026-04-23 22:07 | 31.71133 | -81.20691 | 26992 ft | 524 kts | 50° |
| 2026-04-23 22:07 | 31.73460 | -81.17415 | 26981 ft | 523 kts | 49° |
| 2026-04-23 22:07 | 31.75841 | -81.14164 | 26975 ft | 523 kts | 49° |
| 2026-04-23 22:07 | 31.78203 | -81.10983 | 26966 ft | 525 kts | 48° |
| 2026-04-23 22:08 | 31.80624 | -81.07770 | 26962 ft | 526 kts | 48° |
| 2026-04-23 22:08 | 31.83089 | -81.04613 | 26963 ft | 524 kts | 43° |
| 2026-04-23 22:08 | 31.85797 | -81.01741 | 26963 ft | 523 kts | 41° |
| 2026-04-23 22:08 | 31.88448 | -80.98799 | 26959 ft | 524 kts | 44° |
| 2026-04-23 22:09 | 31.91071 | -80.95820 | 26961 ft | 524 kts | 42° |
| 2026-04-23 22:09 | 31.93742 | -80.92907 | 26959 ft | 525 kts | 43° |
| 2026-04-23 22:09 | 31.96366 | -80.89928 | 26964 ft | 524 kts | 42° |
| 2026-04-23 22:09 | 31.99018 | -80.86985 | 26961 ft | 523 kts | 43° |
| 2026-04-23 22:10 | 32.01666 | -80.84032 | 26986 ft | 523 kts | 42° |
| 2026-04-23 22:10 | 32.04267 | -80.81096 | 26990 ft | 525 kts | 42° |
| 2026-04-23 22:10 | 32.06921 | -80.78147 | 26997 ft | 525 kts | 42° |
| 2026-04-23 22:10 | 32.09559 | -80.75178 | 27000 ft | 525 kts | 43° |
| 2026-04-23 22:11 | 32.12205 | -80.72207 | 27003 ft | 524 kts | 43° |
| 2026-04-23 22:11 | 32.14850 | -80.69248 | 27005 ft | 524 kts | 42° |
| 2026-04-23 22:11 | 32.17496 | -80.66263 | 27005 ft | 525 kts | 43° |
| 2026-04-23 22:11 | 32.20139 | -80.63294 | 27003 ft | 525 kts | 43° |
| 2026-04-23 22:12 | 32.22778 | -80.60324 | 26984 ft | 525 kts | 43° |
| 2026-04-23 22:12 | 32.25422 | -80.57344 | 26985 ft | 524 kts | 42° |
| 2026-04-23 22:12 | 32.28029 | -80.54404 | 26500 ft | 521 kts | 43° |
| 2026-04-23 22:12 | 32.30635 | -80.51463 | 25776 ft | 514 kts | 43° |
| 2026-04-23 22:13 | 32.33207 | -80.48555 | 25068 ft | 509 kts | 43° |
| 2026-04-23 22:13 | 32.35751 | -80.45682 | 24377 ft | 504 kts | 42° |
| 2026-04-23 22:13 | 32.38265 | -80.42838 | 23701 ft | 497 kts | 42° |
| 2026-04-23 22:13 | 32.40757 | -80.40016 | 22910 ft | 492 kts | 43° |
| 2026-04-23 22:14 | 32.43221 | -80.37223 | 22130 ft | 488 kts | 43° |
| 2026-04-23 22:14 | 32.45657 | -80.34461 | 21372 ft | 484 kts | 43° |
| 2026-04-23 22:14 | 32.48068 | -80.31722 | 20627 ft | 479 kts | 43° |
| 2026-04-23 22:14 | 32.50462 | -80.29006 | 19906 ft | 473 kts | 43° |
| 2026-04-23 22:15 | 32.52800 | -80.26344 | 19220 ft | 470 kts | 43° |
| 2026-04-23 22:15 | 32.55151 | -80.23672 | 18531 ft | 468 kts | 43° |
| 2026-04-23 22:15 | 32.57670 | -80.20808 | 17769 ft | 557 kts | 43° |
| 2026-04-23 22:15 | 32.60648 | -80.17410 | 17020 ft | 614 kts | 43° |
| 2026-04-23 22:16 | 32.63748 | -80.13873 | 16243 ft | 619 kts | 43° |
| 2026-04-23 22:16 | 32.66846 | -80.10337 | 15825 ft | 617 kts | 44° |
| 2026-04-23 22:16 | 32.69927 | -80.06812 | 15653 ft | 615 kts | 44° |
| 2026-04-23 22:16 | 32.73008 | -80.03289 | 15577 ft | 614 kts | 44° |
| 2026-04-23 22:17 | 32.76043 | -79.99812 | 15545 ft | 614 kts | 44° |
| 2026-04-23 22:17 | 32.79118 | -79.96287 | 15524 ft | 614 kts | 44° |
| 2026-04-23 22:17 | 32.82188 | -79.92763 | 15492 ft | 614 kts | 44° |
| 2026-04-23 22:17 | 32.85259 | -79.89235 | 15485 ft | 614 kts | 44° |
| 2026-04-23 22:18 | 32.88330 | -79.85704 | 15482 ft | 614 kts | 44° |
| 2026-04-23 22:18 | 32.91400 | -79.82170 | 15478 ft | 614 kts | 44° |
| 2026-04-23 22:18 | 32.94471 | -79.78631 | 15475 ft | 614 kts | 44° |
| 2026-04-23 22:18 | 32.97539 | -79.75093 | 15475 ft | 614 kts | 44° |
| 2026-04-23 22:19 | 33.00565 | -79.71598 | 15475 ft | 614 kts | 44° |
| 2026-04-23 22:19 | 33.03632 | -79.68053 | 15387 ft | 614 kts | 44° |
| 2026-04-23 22:19 | 33.06716 | -79.64485 | 14578 ft | 619 kts | 44° |
| 2026-04-23 22:19 | 33.09803 | -79.60909 | 13980 ft | 618 kts | 44° |
| 2026-04-23 22:20 | 33.12877 | -79.57346 | 13701 ft | 616 kts | 44° |
| 2026-04-23 22:20 | 33.15947 | -79.53782 | 13581 ft | 615 kts | 44° |
| 2026-04-23 22:20 | 33.19012 | -79.50221 | 13529 ft | 615 kts | 44° |
| 2026-04-23 22:20 | 33.22078 | -79.46655 | 13505 ft | 615 kts | 44° |
| 2026-04-23 22:21 | 33.25098 | -79.43137 | 13489 ft | 615 kts | 44° |
| 2026-04-23 22:21 | 33.28161 | -79.39567 | 13489 ft | 615 kts | 43° |
| 2026-04-23 22:21 | 33.31227 | -79.35995 | 13483 ft | 615 kts | 44° |
| 2026-04-23 22:21 | 33.34284 | -79.32421 | 13480 ft | 615 kts | 44° |
| 2026-04-23 22:22 | 33.37352 | -79.28840 | 13480 ft | 615 kts | 43° |
| 2026-04-23 22:22 | 33.40369 | -79.25302 | 12970 ft | 574 kts | 43° |
| 2026-04-23 22:22 | 33.43006 | -79.22210 | 12212 ft | 494 kts | 44° |
| 2026-04-23 22:22 | 33.45326 | -79.19497 | 11457 ft | 443 kts | 42° |
| 2026-04-23 22:23 | 33.47416 | -79.17040 | 10720 ft | 411 kts | 42° |
| 2026-04-23 22:23 | 33.49396 | -79.14722 | 9983 ft | 387 kts | 43° |
| 2026-04-23 22:23 | 33.51271 | -79.12512 | 9183 ft | 369 kts | 41° |
| 2026-04-23 22:23 | 33.53068 | -79.10402 | 8408 ft | 355 kts | 41° |
| 2026-04-23 22:24 | 33.54802 | -79.08370 | 7650 ft | 343 kts | 42° |
| 2026-04-23 22:24 | 33.56481 | -79.06389 | 6914 ft | 334 kts | 42° |
| 2026-04-23 22:24 | 33.58119 | -79.04468 | 6176 ft | 326 kts | 42° |
| 2026-04-23 22:24 | 33.59890 | -79.02856 | 5428 ft | 315 kts | 27° |
| 2026-04-23 22:25 | 33.61809 | -79.01666 | 4704 ft | 308 kts | 23° |
| 2026-04-23 22:25 | 33.63709 | -79.00609 | 3964 ft | 302 kts | 22° |
| 2026-04-23 22:25 | 33.65622 | -78.99611 | 3203 ft | 298 kts | 21° |
| 2026-04-23 22:25 | 33.67507 | -78.98655 | 2635 ft | 288 kts | 21° |
| 2026-04-23 22:26 | 33.69312 | -78.97741 | 2309 ft | 275 kts | 21° |
| 2026-04-23 22:26 | 33.70985 | -78.96852 | 1703 ft | 241 kts | 33° |
| 2026-04-23 22:26 | 33.71814 | -78.95400 | 1234 ft | 188 kts | 91° |
| 2026-04-23 22:26 | 33.71383 | -78.94018 | 928 ft | 179 kts | 144° |
| 2026-04-23 22:27 | 33.70347 | -78.93441 | 401 ft | 157 kts | 170° |
| 2026-04-23 22:27 | 33.69274 | -78.93156 | 71 ft | 159 kts | 169° |
| 2026-04-23 22:27 | 33.68362 | -78.92932 | 29 ft | 104 kts | 168° |
| 2026-04-23 22:27 | 33.67568 | -78.92735 | 50 ft | 167 kts | 170° |
| 2026-04-23 22:28 | 33.66104 | -78.92382 | 586 ft | 239 kts | 172° |
| 2026-04-23 22:28 | 33.65113 | -78.93272 | 1034 ft | 216 kts | 271° |
| 2026-04-23 22:28 | 33.66013 | -78.94753 | 1041 ft | 236 kts | 331° |
| 2026-04-23 22:28 | 33.67653 | -78.95113 | 1055 ft | 240 kts | 351° |
| 2026-04-23 22:29 | 33.69297 | -78.95303 | 1094 ft | 234 kts | 350° |
| 2026-04-23 22:29 | 33.70871 | -78.95474 | 1047 ft | 216 kts | 352° |